createdAt,value
2017-06-22T00:00:36.222Z,12.65
2017-06-22T00:03:02.899Z,10.98
2017-06-22T00:05:29.584Z,11.77
2017-06-22T00:07:56.291Z,11.65
2017-06-22T00:10:22.963Z,9.82
2017-06-22T00:12:49.668Z,10.80
2017-06-22T00:15:16.345Z,10.15
2017-06-22T00:17:43.038Z,8.95
2017-06-22T00:20:09.715Z,9.50
2017-06-22T00:22:36.387Z,8.40
2017-06-22T00:25:03.077Z,7.68
2017-06-22T00:27:29.972Z,6.57
2017-06-22T00:29:56.668Z,6.32
2017-06-22T00:32:23.344Z,9.20
2017-06-22T00:34:50.034Z,6.87
2017-06-22T00:37:16.708Z,6.60
2017-06-22T00:39:43.397Z,7.28
2017-06-22T00:42:10.077Z,5.93
2017-06-22T00:44:36.772Z,6.57
2017-06-22T00:47:03.441Z,5.93
2017-06-22T00:49:30.108Z,6.95
2017-06-22T00:51:56.787Z,6.95
2017-06-22T00:54:23.455Z,5.78
2017-06-22T00:56:50.125Z,6.72
2017-06-22T00:59:16.791Z,6.87
2017-06-22T01:01:43.489Z,6.37
2017-06-22T01:04:10.167Z,7.35
2017-06-22T01:06:36.865Z,6.87
2017-06-22T01:09:03.548Z,6.28
2017-06-22T01:11:30.236Z,6.72
2017-06-22T01:13:56.900Z,7.28
2017-06-22T01:16:23.601Z,6.12
2017-06-22T01:18:50.284Z,7.20
2017-06-22T01:21:16.953Z,7.22
2017-06-22T01:23:43.628Z,10.10
2017-06-22T01:26:10.300Z,7.25
2017-06-22T01:28:36.976Z,10.82
2017-06-22T01:31:03.668Z,7.20
2017-06-22T01:33:30.333Z,7.10
2017-06-22T01:35:57.000Z,7.53
2017-06-22T01:38:23.693Z,7.12
2017-06-22T01:40:50.372Z,6.82
2017-06-22T01:43:17.069Z,8.60
2017-06-22T01:45:43.744Z,12.45
2017-06-22T01:48:10.438Z,7.82
2017-06-22T01:50:37.112Z,9.77
2017-06-22T01:53:03.820Z,6.50
2017-06-22T01:55:30.488Z,6.90
2017-06-22T01:57:57.165Z,8.73
2017-06-22T02:00:23.832Z,6.32
2017-06-22T02:02:50.500Z,7.12
2017-06-22T02:05:17.172Z,6.80
2017-06-22T02:07:43.836Z,6.97
2017-06-22T02:10:10.510Z,6.75
2017-06-22T02:12:37.177Z,7.22
2017-06-22T02:15:03.845Z,8.45
2017-06-22T02:17:30.517Z,6.25
2017-06-22T02:19:57.205Z,7.55
2017-06-22T02:22:23.877Z,7.03
2017-06-22T02:24:50.568Z,8.15
2017-06-22T02:27:17.232Z,8.77
2017-06-22T02:29:43.920Z,7.30
2017-06-22T02:32:10.593Z,7.35
2017-06-22T02:34:37.303Z,7.57
2017-06-22T02:37:03.976Z,7.25
2017-06-22T02:39:30.682Z,7.65
2017-06-22T02:41:57.353Z,7.62
2017-06-22T02:44:24.021Z,7.43
2017-06-22T02:46:50.693Z,10.50
2017-06-22T02:49:17.360Z,8.55
2017-06-22T02:51:44.029Z,8.25
2017-06-22T02:54:10.697Z,8.02
2017-06-22T02:56:37.369Z,8.23
2017-06-22T02:59:04.041Z,8.40
2017-06-22T03:01:30.714Z,9.15
2017-06-22T03:03:57.389Z,8.57
2017-06-22T03:06:24.089Z,8.00
2017-06-22T03:08:50.763Z,8.27
2017-06-22T03:11:17.460Z,9.05
2017-06-22T03:13:44.138Z,10.15
2017-06-22T03:16:10.811Z,9.93
2017-06-22T03:18:37.492Z,11.93
2017-06-22T03:21:04.161Z,9.70
2017-06-22T03:23:30.828Z,11.68
2017-06-22T03:25:57.500Z,10.00
2017-06-22T03:28:24.204Z,8.55
2017-06-22T03:30:50.872Z,9.82
2017-06-22T03:33:17.544Z,9.73
2017-06-22T03:35:44.212Z,10.82
2017-06-22T03:38:10.886Z,10.27
2017-06-22T03:40:37.560Z,13.25
2017-06-22T03:43:04.230Z,10.23
2017-06-22T03:45:30.896Z,11.12
2017-06-22T03:47:57.573Z,9.63
2017-06-22T03:50:24.236Z,9.77
2017-06-22T03:52:50.908Z,12.25
2017-06-22T03:55:17.590Z,9.77
2017-06-22T03:57:44.254Z,8.85
2017-06-22T04:00:11.079Z,9.20
2017-06-22T04:02:37.760Z,10.32
2017-06-22T04:05:04.481Z,11.32
2017-06-22T04:07:31.157Z,10.30
2017-06-22T04:09:57.828Z,10.73
2017-06-22T04:12:24.512Z,9.88
2017-06-22T04:14:51.185Z,17.40
2017-06-22T04:17:17.888Z,10.32
2017-06-22T04:19:44.565Z,10.68
2017-06-22T04:22:11.343Z,9.93
2017-06-22T04:24:38.021Z,10.57
2017-06-22T04:27:04.735Z,9.20
2017-06-22T04:29:31.396Z,9.47
2017-06-22T04:31:58.072Z,10.35
2017-06-22T04:34:24.747Z,9.95
2017-06-22T04:36:51.410Z,9.50
2017-06-22T04:39:18.120Z,10.00
2017-06-22T04:41:44.799Z,10.23
2017-06-22T04:44:11.496Z,10.30
2017-06-22T04:46:38.173Z,10.20
2017-06-22T04:49:04.868Z,11.05
2017-06-22T04:51:31.545Z,10.52
2017-06-22T04:53:58.256Z,11.07
2017-06-22T04:56:24.936Z,9.70
2017-06-22T04:58:51.634Z,8.75
2017-06-22T05:01:18.300Z,9.70
2017-06-22T05:03:44.971Z,9.70
2017-06-22T05:06:11.654Z,10.33
2017-06-22T05:08:38.324Z,9.87
2017-06-22T05:11:05.013Z,8.17
2017-06-22T05:13:31.679Z,9.70
2017-06-22T05:15:58.376Z,9.67
2017-06-22T05:18:25.046Z,10.00
2017-06-22T05:20:51.769Z,9.33
2017-06-22T05:23:18.432Z,10.50
2017-06-22T05:25:45.269Z,9.33
2017-06-22T05:28:12.082Z,9.53
2017-06-22T05:30:38.793Z,10.20
2017-06-22T05:33:05.456Z,9.87
2017-06-22T05:35:32.132Z,10.53
2017-06-22T05:37:58.797Z,9.53
2017-06-22T05:40:25.466Z,9.87
2017-06-22T05:42:52.172Z,8.67
2017-06-22T05:45:18.842Z,9.50
2017-06-22T05:47:45.532Z,9.40
2017-06-22T05:50:12.204Z,9.77
2017-06-22T05:52:38.890Z,9.90
2017-06-22T05:55:05.554Z,8.83
2017-06-22T05:57:32.258Z,9.43
2017-06-22T05:59:58.929Z,9.47
2017-06-22T06:02:25.649Z,10.53
2017-06-22T06:04:52.345Z,7.90
2017-06-22T06:07:19.029Z,8.83
2017-06-22T06:09:45.706Z,8.17
2017-06-22T06:12:12.397Z,8.60
2017-06-22T06:14:39.060Z,9.10
2017-06-22T06:17:05.732Z,8.70
2017-06-22T06:19:32.402Z,8.13
2017-06-22T06:21:59.064Z,8.60
2017-06-22T06:24:25.757Z,8.10
2017-06-22T06:26:52.420Z,8.17
2017-06-22T06:29:20.210Z,8.37
2017-06-22T06:31:46.873Z,8.70
2017-06-22T06:34:13.565Z,8.17
2017-06-22T06:36:40.229Z,8.40
2017-06-22T06:39:06.924Z,7.90
2017-06-22T06:41:33.600Z,7.90
2017-06-22T06:44:00.300Z,7.40
2017-06-22T06:46:26.980Z,9.00
2017-06-22T06:48:53.649Z,7.73
2017-06-22T06:51:20.320Z,8.40
2017-06-22T06:53:46.989Z,8.40
2017-06-22T06:56:13.652Z,8.30
2017-06-22T06:58:40.316Z,7.80
2017-06-22T07:01:06.983Z,7.47
2017-06-22T07:03:33.649Z,9.03
2017-06-22T07:06:00.337Z,8.93
2017-06-22T07:08:27.008Z,8.83
2017-06-22T07:10:54.177Z,8.30
2017-06-22T07:13:20.845Z,9.10
2017-06-22T07:15:48.305Z,7.77
2017-06-22T07:18:14.987Z,8.50
2017-06-22T07:20:41.654Z,8.83
2017-06-22T07:23:08.323Z,8.27
2017-06-22T07:25:34.989Z,8.00
2017-06-22T07:28:01.658Z,8.47
2017-06-22T07:30:28.332Z,7.77
2017-06-22T07:32:54.998Z,8.10
2017-06-22T07:35:21.664Z,8.93
2017-06-22T07:37:48.369Z,8.30
2017-06-22T07:40:15.041Z,8.43
2017-06-22T07:42:41.740Z,8.00
2017-06-22T07:45:08.420Z,7.47
2017-06-22T07:47:35.092Z,8.73
2017-06-22T07:50:01.758Z,8.43
2017-06-22T07:52:28.425Z,7.90
2017-06-22T07:54:55.084Z,9.17
2017-06-22T07:57:21.763Z,8.70
2017-06-22T07:59:48.432Z,8.50
2017-06-22T08:02:15.120Z,7.90
2017-06-22T08:04:41.783Z,8.47
2017-06-22T08:07:08.441Z,8.47
2017-06-22T08:09:35.116Z,8.17
2017-06-22T08:12:01.790Z,9.17
2017-06-22T08:14:28.457Z,8.83
2017-06-22T08:16:55.119Z,8.63
2017-06-22T08:19:21.818Z,8.37
2017-06-22T08:21:48.486Z,8.47
2017-06-22T08:24:15.156Z,8.40
2017-06-22T08:26:41.829Z,8.40
2017-06-22T08:29:08.506Z,8.67
2017-06-22T08:31:35.168Z,8.50
2017-06-22T08:34:01.842Z,8.40
2017-06-22T08:36:28.509Z,8.83
2017-06-22T08:38:55.181Z,7.83
2017-06-22T08:41:21.850Z,9.57
2017-06-22T08:43:48.518Z,9.73
2017-06-22T08:46:15.203Z,8.47
2017-06-22T08:48:41.871Z,8.50
2017-06-22T08:51:08.569Z,8.40
2017-06-22T08:53:35.244Z,8.33
2017-06-22T08:56:01.919Z,9.77
2017-06-22T08:58:28.592Z,9.23
2017-06-22T09:00:55.265Z,8.83
2017-06-22T09:03:21.933Z,9.50
2017-06-22T09:05:48.612Z,9.50
2017-06-22T09:08:15.310Z,9.20
2017-06-22T09:10:41.994Z,9.77
2017-06-22T09:13:08.673Z,9.40
2017-06-22T09:15:35.344Z,9.20
2017-06-22T09:18:02.044Z,9.27
2017-06-22T09:20:28.727Z,9.07
2017-06-22T09:22:55.404Z,10.17
2017-06-22T09:25:22.068Z,10.33
2017-06-22T09:27:48.733Z,9.50
2017-06-22T09:30:15.409Z,9.80
2017-06-22T09:32:42.084Z,10.53
2017-06-22T09:35:08.761Z,9.50
2017-06-22T09:37:35.438Z,9.43
2017-06-22T09:40:02.122Z,10.13
2017-06-22T09:42:28.796Z,9.37
2017-06-22T09:44:55.516Z,9.40
2017-06-22T09:47:22.310Z,9.10
2017-06-22T09:49:48.986Z,9.60
2017-06-22T09:52:15.684Z,9.77
2017-06-22T09:54:42.372Z,10.50
2017-06-22T09:57:09.094Z,10.20
2017-06-22T09:59:35.771Z,9.90
2017-06-22T10:02:02.470Z,10.07
2017-06-22T10:04:29.138Z,10.47
2017-06-22T10:06:55.843Z,10.00
2017-06-22T10:09:22.522Z,9.80
2017-06-22T10:11:49.245Z,10.00
2017-06-22T10:14:15.921Z,10.37
2017-06-22T10:16:42.594Z,10.07
2017-06-22T10:19:09.268Z,10.10
2017-06-22T10:21:35.948Z,10.90
2017-06-22T10:24:02.643Z,10.30
2017-06-22T10:26:29.329Z,10.53
2017-06-22T10:28:56.031Z,10.43
2017-06-22T10:31:22.722Z,10.60
2017-06-22T10:33:49.417Z,10.63
2017-06-22T10:36:16.100Z,10.50
2017-06-22T10:38:42.804Z,10.43
2017-06-22T10:41:09.476Z,10.10
2017-06-22T10:43:36.161Z,11.77
2017-06-22T10:46:02.840Z,11.27
2017-06-22T10:48:29.525Z,11.07
2017-06-22T10:50:56.208Z,11.23
2017-06-22T10:53:22.902Z,11.20
2017-06-22T10:55:49.618Z,10.40
2017-06-22T10:58:16.300Z,11.97
2017-06-22T11:00:43.005Z,11.67
2017-06-22T11:03:09.683Z,12.17
2017-06-22T11:05:36.399Z,11.23
2017-06-22T11:08:03.077Z,11.73
2017-06-22T11:10:29.788Z,11.80
2017-06-22T11:12:56.469Z,11.83
2017-06-22T11:15:23.173Z,12.77
2017-06-22T11:17:49.852Z,12.37
2017-06-22T11:20:16.552Z,13.40
2017-06-22T11:22:43.226Z,13.33
2017-06-22T11:25:09.957Z,13.73
2017-06-22T11:27:36.644Z,12.90
2017-06-22T11:30:03.331Z,13.70
2017-06-22T11:32:30.021Z,12.67
2017-06-22T11:34:56.700Z,12.47
2017-06-22T11:37:23.373Z,12.67
2017-06-22T11:39:50.050Z,11.93
2017-06-22T11:42:16.744Z,12.47
2017-06-22T11:44:43.421Z,13.73
2017-06-22T11:47:10.127Z,14.77
2017-06-22T11:49:36.796Z,10.43
2017-06-22T11:52:03.492Z,9.90
2017-06-22T11:54:30.173Z,15.40
2017-06-22T11:56:56.881Z,10.30
2017-06-22T11:59:23.552Z,8.60
2017-06-22T12:01:50.262Z,6.77
2017-06-22T12:04:16.945Z,11.40
2017-06-22T12:06:43.616Z,7.93
2017-06-22T12:09:10.293Z,7.30
2017-06-22T12:11:36.967Z,9.00
2017-06-22T12:14:03.636Z,6.90
2017-06-22T12:16:30.309Z,7.90
2017-06-22T12:18:56.992Z,5.57
2017-06-22T12:21:23.660Z,5.63
2017-06-22T12:23:50.353Z,5.37
2017-06-22T12:26:17.019Z,6.40
2017-06-22T12:28:43.724Z,8.00
2017-06-22T12:31:10.419Z,5.80
2017-06-22T12:33:37.089Z,5.47
2017-06-22T12:36:03.769Z,4.63
2017-06-22T12:38:30.438Z,5.03
2017-06-22T12:40:57.126Z,5.07
2017-06-22T12:43:23.808Z,5.43
2017-06-22T12:45:50.504Z,5.53
2017-06-22T12:48:17.164Z,5.77
2017-06-22T12:50:43.853Z,5.70
2017-06-22T12:53:10.517Z,5.70
2017-06-22T12:55:37.201Z,5.90
2017-06-22T12:58:03.888Z,5.27
2017-06-22T13:00:30.602Z,7.07
2017-06-22T13:02:57.277Z,5.77
2017-06-22T13:05:23.941Z,5.57
2017-06-22T13:07:50.610Z,6.37
2017-06-22T13:10:17.273Z,5.93
2017-06-22T13:12:43.940Z,6.07
2017-06-22T13:15:10.604Z,6.17
2017-06-22T13:17:37.304Z,6.10
2017-06-22T13:20:03.993Z,5.80
2017-06-22T13:22:30.669Z,7.37
2017-06-22T13:24:57.332Z,7.40
2017-06-22T13:27:24.008Z,7.43
2017-06-22T13:29:50.672Z,7.00
2017-06-22T13:32:17.337Z,6.30
2017-06-22T13:34:44.011Z,6.77
2017-06-22T13:37:10.682Z,7.43
2017-06-22T13:39:37.356Z,10.43
2017-06-22T13:42:04.029Z,7.33
2017-06-22T13:44:30.713Z,7.87
2017-06-22T13:46:57.381Z,6.90
2017-06-22T13:49:24.082Z,6.77
2017-06-22T13:51:50.750Z,6.33
2017-06-22T13:54:17.445Z,8.37
2017-06-22T13:56:44.118Z,7.03
2017-06-22T13:59:10.780Z,6.90
2017-06-22T14:01:37.444Z,8.03
2017-06-22T14:04:04.109Z,7.40
2017-06-22T14:06:30.793Z,7.00
2017-06-22T14:08:57.463Z,6.73
2017-06-22T14:11:24.140Z,7.43
2017-06-22T14:13:50.808Z,7.40
2017-06-22T14:16:17.483Z,7.80
2017-06-22T14:18:44.152Z,7.67
2017-06-22T14:21:10.830Z,8.70
2017-06-22T14:23:37.488Z,8.80
2017-06-22T14:26:04.152Z,8.77
2017-06-22T14:28:30.821Z,9.13
2017-06-22T14:30:57.487Z,10.93
2017-06-22T14:33:24.155Z,8.53
2017-06-22T14:35:50.855Z,8.20
2017-06-22T14:38:17.528Z,9.13
2017-06-22T14:40:44.209Z,7.67
2017-06-22T14:43:10.876Z,9.73
2017-06-22T14:45:37.544Z,9.00
2017-06-22T14:48:04.208Z,11.57
2017-06-22T14:50:30.880Z,8.70
2017-06-22T14:52:57.557Z,8.27
2017-06-22T14:55:24.227Z,10.37
2017-06-22T14:57:50.901Z,8.53
2017-06-22T15:00:17.575Z,8.33
2017-06-22T15:02:44.245Z,8.50
2017-06-22T15:05:10.912Z,9.20
2017-06-22T15:07:37.585Z,10.23
2017-06-22T15:10:04.254Z,8.23
2017-06-22T15:12:30.957Z,9.60
2017-06-22T15:14:57.621Z,9.10
2017-06-22T15:17:24.316Z,9.30
2017-06-22T15:19:50.992Z,9.27
2017-06-22T15:22:17.674Z,10.00
2017-06-22T15:24:44.370Z,9.77
2017-06-22T15:27:11.057Z,10.47
2017-06-22T15:29:37.749Z,9.70
2017-06-22T15:32:04.420Z,9.80
2017-06-22T15:34:31.121Z,10.07
2017-06-22T15:36:57.802Z,11.00
2017-06-22T15:39:24.509Z,15.50
2017-06-22T15:41:51.190Z,10.73
2017-06-22T15:44:17.904Z,11.00
2017-06-22T15:46:44.584Z,10.57
2017-06-22T15:49:11.261Z,11.10
2017-06-22T15:51:37.925Z,10.50
2017-06-22T15:54:04.605Z,10.10
2017-06-22T15:56:31.277Z,12.60
2017-06-22T15:58:57.944Z,10.53
2017-06-22T16:01:24.614Z,9.77
2017-06-22T16:03:51.284Z,11.00
2017-06-22T16:06:17.983Z,9.43
2017-06-22T16:08:44.656Z,10.90
2017-06-22T16:11:11.353Z,10.43
2017-06-22T16:13:38.028Z,10.97
2017-06-22T16:16:04.726Z,11.57
2017-06-22T16:18:31.403Z,9.57
2017-06-22T16:20:58.113Z,10.67
2017-06-22T16:23:24.786Z,10.07
2017-06-22T16:25:51.452Z,9.13
2017-06-22T16:28:18.132Z,9.83
2017-06-22T16:30:44.806Z,10.47
2017-06-22T16:33:11.469Z,9.17
2017-06-22T16:35:38.137Z,10.97
2017-06-22T16:38:04.832Z,10.27
2017-06-22T16:40:31.506Z,10.93
2017-06-22T16:42:58.214Z,9.80
2017-06-22T16:45:24.897Z,10.83
2017-06-22T16:47:51.609Z,12.83
2017-06-22T16:50:18.270Z,9.97
2017-06-22T16:52:44.965Z,10.80
2017-06-22T16:55:11.644Z,10.73
2017-06-22T16:57:38.361Z,10.83
2017-06-22T17:00:05.033Z,9.93
2017-06-22T17:02:31.700Z,10.37
2017-06-22T17:04:58.379Z,11.20
2017-06-22T17:07:25.056Z,13.37
2017-06-22T17:09:51.741Z,11.83
2017-06-22T17:12:18.425Z,11.13
2017-06-22T17:14:45.120Z,11.63
2017-06-22T17:17:11.788Z,10.53
2017-06-22T17:19:38.492Z,11.87
2017-06-22T17:22:05.161Z,11.23
2017-06-22T17:24:31.861Z,11.87
2017-06-22T17:26:58.533Z,10.97
2017-06-22T17:29:25.256Z,12.23
2017-06-22T17:31:51.933Z,11.57
2017-06-22T17:34:18.613Z,11.70
2017-06-22T17:36:45.296Z,11.13
2017-06-22T17:39:11.972Z,12.33
2017-06-22T17:41:38.651Z,11.90
2017-06-22T17:56:55.371Z,11.00
2017-06-22T17:59:22.049Z,12.17
2017-06-22T18:01:48.755Z,12.47
2017-06-22T18:04:15.429Z,11.07
2017-06-22T18:06:42.145Z,12.40
2017-06-22T18:09:08.820Z,11.70
2017-06-22T18:11:35.495Z,13.80
2017-06-22T18:14:02.417Z,11.93
2017-06-22T18:16:29.092Z,11.67
2017-06-22T18:18:55.761Z,13.90
2017-06-22T18:21:22.433Z,11.00
2017-06-22T18:23:49.104Z,13.20
2017-06-22T18:26:15.781Z,17.53
2017-06-22T18:28:42.448Z,16.77
2017-06-22T18:31:09.123Z,16.67
2017-06-22T18:33:35.824Z,17.40
2017-06-22T18:36:02.494Z,18.10
2017-06-22T18:38:29.213Z,17.80
2017-06-22T18:41:06.729Z,17.90
2017-06-22T18:43:33.817Z,17.40
2017-06-22T18:46:00.492Z,19.67
2017-06-22T18:48:27.181Z,23.03
2017-06-22T18:50:54.877Z,33.77
2017-06-22T18:53:21.549Z,38.50
2017-06-22T18:55:48.225Z,43.20
2017-06-22T18:58:14.895Z,39.20
2017-06-22T19:00:41.566Z,29.83
2017-06-22T19:06:09.189Z,39.22
2017-06-22T19:08:47.719Z,29.02
2017-06-22T19:13:58.300Z,45.40
2017-06-22T19:16:24.968Z,34.53
2017-06-22T19:18:51.651Z,39.65
2017-06-22T19:21:18.333Z,36.40
2017-06-22T19:23:45.008Z,38.57
2017-06-22T19:26:15.888Z,32.08
2017-06-22T19:28:42.940Z,38.20
2017-06-22T19:31:09.697Z,26.95
2017-06-22T19:33:36.377Z,32.97
2017-06-22T19:36:03.104Z,24.70
2017-06-22T19:38:29.788Z,30.10
2017-06-22T19:40:56.470Z,39.30
2017-06-22T19:43:23.161Z,36.72
2017-06-22T19:45:49.844Z,35.17
2017-06-22T19:48:16.524Z,36.63
2017-06-22T19:50:43.201Z,37.75
2017-06-22T19:53:09.904Z,40.00
2017-06-22T19:55:36.582Z,41.75
2017-06-22T19:58:03.288Z,42.75
2017-06-22T20:00:29.971Z,41.15
2017-06-22T20:02:56.689Z,33.00
2017-06-22T20:05:23.359Z,36.80
2017-06-22T20:07:50.040Z,39.70
2017-06-22T20:10:16.726Z,42.47
2017-06-22T20:12:43.519Z,37.22
2017-06-22T20:15:10.420Z,40.75
2017-06-22T20:17:37.095Z,50.95
2017-06-22T20:20:03.795Z,44.15
2017-06-22T20:22:30.472Z,49.00
2017-06-22T20:24:57.183Z,47.92
2017-06-22T20:27:23.860Z,46.35
2017-06-22T20:29:50.576Z,39.17
2017-06-22T20:32:17.255Z,48.28
2017-06-22T20:34:43.932Z,44.15
2017-06-22T20:37:10.625Z,39.30
2017-06-22T20:39:37.305Z,44.28
2017-06-22T20:42:04.085Z,46.08
2017-06-22T20:44:30.899Z,48.30
2017-06-22T20:46:57.894Z,44.33
2017-06-22T20:49:26.080Z,47.75
2017-06-22T20:51:52.799Z,42.62
2017-06-22T20:54:19.475Z,49.30
2017-06-22T20:56:46.192Z,43.10
2017-06-22T20:59:12.875Z,49.05
2017-06-22T21:01:39.568Z,44.08
2017-06-22T21:04:06.255Z,40.40
2017-06-22T21:06:32.939Z,45.20
2017-06-22T21:08:59.615Z,40.28
2017-06-22T21:11:26.299Z,41.47
2017-06-22T21:13:52.984Z,43.67
2017-06-22T21:16:19.659Z,44.13
2017-06-22T21:18:46.359Z,41.72
2017-06-22T21:21:13.040Z,42.55
2017-06-22T21:23:39.744Z,37.38
2017-06-22T21:26:06.440Z,38.88
2017-06-22T21:28:33.170Z,40.60
2017-06-22T21:30:59.855Z,41.67
2017-06-22T21:33:26.544Z,41.13
2017-06-22T21:35:53.224Z,35.75
2017-06-22T21:38:19.901Z,40.38
2017-06-22T21:40:46.579Z,34.38
2017-06-22T21:43:13.259Z,33.30
2017-06-22T21:45:39.936Z,32.88
2017-06-22T21:48:06.620Z,31.30
2017-06-22T21:50:33.321Z,24.23
2017-06-22T21:52:59.995Z,29.08
2017-06-22T21:55:26.699Z,23.20
2017-06-22T21:57:53.386Z,25.30
2017-06-22T22:00:20.091Z,26.42
2017-06-22T22:02:46.768Z,26.48
2017-06-22T22:05:13.435Z,26.67
2017-06-22T22:07:40.108Z,28.98
2017-06-22T22:10:06.787Z,28.52
2017-06-22T22:12:33.459Z,27.30
2017-06-22T22:15:00.133Z,28.90
2017-06-22T22:17:26.827Z,30.17
2017-06-22T22:19:53.509Z,29.00
2017-06-22T22:22:20.212Z,28.20
2017-06-22T22:24:46.880Z,31.52
2017-06-22T22:27:13.552Z,30.73
2017-06-22T22:29:40.232Z,30.70
2017-06-22T22:32:06.912Z,30.52
2017-06-22T22:34:33.585Z,35.17
2017-06-22T22:37:00.260Z,33.97
2017-06-22T22:39:26.936Z,39.17
2017-06-22T22:41:53.619Z,36.80
2017-06-22T22:44:20.295Z,35.92
2017-06-22T22:46:46.970Z,35.80
2017-06-22T22:49:13.648Z,35.55
2017-06-22T22:51:40.319Z,38.33
2017-06-22T22:54:06.991Z,35.83
2017-06-22T22:56:33.659Z,37.63
2017-06-22T22:59:00.363Z,39.30
2017-06-22T23:01:27.036Z,37.13
2017-06-22T23:03:53.708Z,39.75
2017-06-22T23:06:20.393Z,46.17
2017-06-22T23:08:47.063Z,36.40
2017-06-22T23:11:13.735Z,45.92
2017-06-22T23:13:40.408Z,37.10
2017-06-22T23:16:07.084Z,40.10
2017-06-22T23:18:33.760Z,39.10
2017-06-22T23:21:00.440Z,41.92
2017-06-22T23:23:27.116Z,41.00
2017-06-22T23:25:53.787Z,42.67
2017-06-22T23:28:20.456Z,41.58
2017-06-22T23:30:47.136Z,48.92
2017-06-22T23:33:13.832Z,42.03
2017-06-22T23:35:40.504Z,42.05
2017-06-22T23:38:07.199Z,47.60
2017-06-22T23:40:33.872Z,42.60
2017-06-22T23:43:00.573Z,55.92
2017-06-22T23:45:27.249Z,48.30
2017-06-22T23:47:53.943Z,42.83
2017-06-22T23:50:20.619Z,43.25
2017-06-22T23:52:47.284Z,42.15
2017-06-22T23:55:13.957Z,38.60
2017-06-22T23:57:40.632Z,43.40
